sensor_id;sensor_type;location;lat;lon;timestamp;temperature;humidity
5924;DHT22;2987;50.884;14.818;2023-02-02T00:00:10;3.70;99.90
5924;DHT22;2987;50.884;14.818;2023-02-02T00:02:37;3.70;99.90
5924;DHT22;2987;50.884;14.818;2023-02-02T00:05:03;3.70;99.90
5924;DHT22;2987;50.884;14.818;2023-02-02T00:07:29;4.00;99.90
5924;DHT22;2987;50.884;14.818;2023-02-02T00:09:55;3.90;99.90
5924;DHT22;2987;50.884;14.818;2023-02-02T00:12:21;4.10;99.90
5924;DHT22;2987;50.884;14.818;2023-02-02T00:14:47;4.10;99.90
5924;DHT22;2987;50.884;14.818;2023-02-02T00:17:13;4.00;99.90
5924;DHT22;2987;50.884;14.818;2023-02-02T00:19:40;4.00;99.90
5924;DHT22;2987;50.884;14.818;2023-02-02T00:22:06;4.00;99.90
5924;DHT22;2987;50.884;14.818;2023-02-02T00:24:32;3.90;99.90
5924;DHT22;2987;50.884;14.818;2023-02-02T00:26:59;4.10;99.90
5924;DHT22;2987;50.884;14.818;2023-02-02T00:29:30;4.10;99.90
5924;DHT22;2987;50.884;14.818;2023-02-02T00:31:56;4.20;99.90
5924;DHT22;2987;50.884;14.818;2023-02-02T00:34:23;3.90;99.90
5924;DHT22;2987;50.884;14.818;2023-02-02T00:36:50;4.10;99.90
5924;DHT22;2987;50.884;14.818;2023-02-02T00:39:18;4.20;99.90
5924;DHT22;2987;50.884;14.818;2023-02-02T00:41:45;3.90;99.90
5924;DHT22;2987;50.884;14.818;2023-02-02T00:44:12;4.10;99.90
5924;DHT22;2987;50.884;14.818;2023-02-02T00:46:59;3.70;99.90
5924;DHT22;2987;50.884;14.818;2023-02-02T00:49:25;3.80;99.90
5924;DHT22;2987;50.884;14.818;2023-02-02T00:51:51;3.80;99.90
5924;DHT22;2987;50.884;14.818;2023-02-02T00:54:17;3.80;99.90
5924;DHT22;2987;50.884;14.818;2023-02-02T00:56:43;3.80;99.90
5924;DHT22;2987;50.884;14.818;2023-02-02T00:59:11;3.70;99.90
5924;DHT22;2987;50.884;14.818;2023-02-02T01:01:37;3.80;99.90
5924;DHT22;2987;50.884;14.818;2023-02-02T01:04:03;3.70;99.90
5924;DHT22;2987;50.884;14.818;2023-02-02T01:06:30;3.80;99.90
5924;DHT22;2987;50.884;14.818;2023-02-02T01:08:56;3.70;99.90
5924;DHT22;2987;50.884;14.818;2023-02-02T01:11:22;3.80;99.90
5924;DHT22;2987;50.884;14.818;2023-02-02T01:13:51;3.80;99.90
5924;DHT22;2987;50.884;14.818;2023-02-02T01:16:18;3.90;99.90
5924;DHT22;2987;50.884;14.818;2023-02-02T01:18:51;3.80;99.90
5924;DHT22;2987;50.884;14.818;2023-02-02T01:21:20;3.80;99.90
5924;DHT22;2987;50.884;14.818;2023-02-02T01:23:47;3.80;99.90
5924;DHT22;2987;50.884;14.818;2023-02-02T01:26:14;3.80;99.90
5924;DHT22;2987;50.884;14.818;2023-02-02T01:28:40;3.80;99.90
5924;DHT22;2987;50.884;14.818;2023-02-02T01:31:10;3.70;99.90
5924;DHT22;2987;50.884;14.818;2023-02-02T01:33:38;3.90;99.90
5924;DHT22;2987;50.884;14.818;2023-02-02T01:36:08;3.80;99.90
5924;DHT22;2987;50.884;14.818;2023-02-02T01:38:36;4.00;99.90
5924;DHT22;2987;50.884;14.818;2023-02-02T01:41:02;3.90;99.90
5924;DHT22;2987;50.884;14.818;2023-02-02T01:43:50;4.00;99.90
5924;DHT22;2987;50.884;14.818;2023-02-02T01:46:21;4.00;99.90
5924;DHT22;2987;50.884;14.818;2023-02-02T01:48:57;4.00;99.90
5924;DHT22;2987;50.884;14.818;2023-02-02T01:51:34;4.00;99.90
5924;DHT22;2987;50.884;14.818;2023-02-02T01:54:01;4.00;99.90
5924;DHT22;2987;50.884;14.818;2023-02-02T01:56:34;4.00;99.90
5924;DHT22;2987;50.884;14.818;2023-02-02T01:59:02;3.90;99.90
5924;DHT22;2987;50.884;14.818;2023-02-02T02:01:30;4.00;99.90
5924;DHT22;2987;50.884;14.818;2023-02-02T02:03:56;3.90;99.90
5924;DHT22;2987;50.884;14.818;2023-02-02T02:06:23;4.00;99.90
5924;DHT22;2987;50.884;14.818;2023-02-02T02:08:57;3.70;99.90
5924;DHT22;2987;50.884;14.818;2023-02-02T02:11:25;3.90;99.90
5924;DHT22;2987;50.884;14.818;2023-02-02T02:13:54;3.90;99.90
5924;DHT22;2987;50.884;14.818;2023-02-02T02:19:57;3.70;99.90
5924;DHT22;2987;50.884;14.818;2023-02-02T02:23:18;4.00;99.90
5924;DHT22;2987;50.884;14.818;2023-02-02T02:34:21;3.80;99.90
5924;DHT22;2987;50.884;14.818;2023-02-02T02:36:49;3.70;99.90
5924;DHT22;2987;50.884;14.818;2023-02-02T02:39:29;3.70;99.90
5924;DHT22;2987;50.884;14.818;2023-02-02T02:42:03;3.70;99.90
5924;DHT22;2987;50.884;14.818;2023-02-02T02:44:34;3.80;99.90
5924;DHT22;2987;50.884;14.818;2023-02-02T02:47:02;3.70;99.90
5924;DHT22;2987;50.884;14.818;2023-02-02T02:49:28;3.60;99.90
5924;DHT22;2987;50.884;14.818;2023-02-02T02:51:55;3.70;99.90
5924;DHT22;2987;50.884;14.818;2023-02-02T02:54:30;3.70;99.90
5924;DHT22;2987;50.884;14.818;2023-02-02T02:57:21;3.80;99.90
5924;DHT22;2987;50.884;14.818;2023-02-02T03:02:35;3.80;99.90
5924;DHT22;2987;50.884;14.818;2023-02-02T03:08:23;3.80;99.90
5924;DHT22;2987;50.884;14.818;2023-02-02T03:10:53;3.90;99.90
5924;DHT22;2987;50.884;14.818;2023-02-02T03:15:47;4.00;99.90
5924;DHT22;2987;50.884;14.818;2023-02-02T03:18:15;4.00;99.90
5924;DHT22;2987;50.884;14.818;2023-02-02T03:20:42;4.00;99.90
5924;DHT22;2987;50.884;14.818;2023-02-02T03:23:09;3.90;99.90
5924;DHT22;2987;50.884;14.818;2023-02-02T03:25:36;4.00;99.90
5924;DHT22;2987;50.884;14.818;2023-02-02T03:28:03;3.90;99.90
5924;DHT22;2987;50.884;14.818;2023-02-02T03:30:29;4.00;99.90
5924;DHT22;2987;50.884;14.818;2023-02-02T03:32:56;4.00;99.90
5924;DHT22;2987;50.884;14.818;2023-02-02T03:35:23;4.40;99.90
5924;DHT22;2987;50.884;14.818;2023-02-02T03:37:51;4.30;99.90
5924;DHT22;2987;50.884;14.818;2023-02-02T03:40:17;4.30;99.90
5924;DHT22;2987;50.884;14.818;2023-02-02T03:42:44;4.30;99.90
5924;DHT22;2987;50.884;14.818;2023-02-02T03:45:10;4.30;99.90
5924;DHT22;2987;50.884;14.818;2023-02-02T03:47:36;4.20;99.90
5924;DHT22;2987;50.884;14.818;2023-02-02T03:50:04;4.30;99.90
5924;DHT22;2987;50.884;14.818;2023-02-02T03:52:30;4.30;99.90
5924;DHT22;2987;50.884;14.818;2023-02-02T03:54:57;4.20;99.90
5924;DHT22;2987;50.884;14.818;2023-02-02T03:57:23;4.50;99.90
5924;DHT22;2987;50.884;14.818;2023-02-02T03:59:49;4.30;99.90
5924;DHT22;2987;50.884;14.818;2023-02-02T04:02:15;4.30;99.90
5924;DHT22;2987;50.884;14.818;2023-02-02T04:04:41;4.30;99.90
5924;DHT22;2987;50.884;14.818;2023-02-02T04:07:07;4.30;99.90
5924;DHT22;2987;50.884;14.818;2023-02-02T04:09:34;4.30;99.90
5924;DHT22;2987;50.884;14.818;2023-02-02T04:12:00;4.10;99.90
5924;DHT22;2987;50.884;14.818;2023-02-02T04:14:29;4.20;99.90
5924;DHT22;2987;50.884;14.818;2023-02-02T04:16:55;4.10;99.90
5924;DHT22;2987;50.884;14.818;2023-02-02T04:19:21;4.00;99.90
5924;DHT22;2987;50.884;14.818;2023-02-02T04:21:48;4.00;99.90
5924;DHT22;2987;50.884;14.818;2023-02-02T04:24:14;4.00;99.90
5924;DHT22;2987;50.884;14.818;2023-02-02T04:26:41;4.20;99.90
5924;DHT22;2987;50.884;14.818;2023-02-02T04:29:08;4.00;99.90
5924;DHT22;2987;50.884;14.818;2023-02-02T04:31:34;4.00;99.90
5924;DHT22;2987;50.884;14.818;2023-02-02T04:34:00;4.20;99.90
5924;DHT22;2987;50.884;14.818;2023-02-02T04:36:27;3.90;99.90
5924;DHT22;2987;50.884;14.818;2023-02-02T04:38:54;4.30;99.90
5924;DHT22;2987;50.884;14.818;2023-02-02T04:41:21;4.30;99.90
5924;DHT22;2987;50.884;14.818;2023-02-02T04:43:47;4.30;99.90
5924;DHT22;2987;50.884;14.818;2023-02-02T04:46:14;4.20;99.90
5924;DHT22;2987;50.884;14.818;2023-02-02T04:48:40;4.20;99.90
5924;DHT22;2987;50.884;14.818;2023-02-02T04:51:10;3.90;99.90
5924;DHT22;2987;50.884;14.818;2023-02-02T04:53:38;4.30;99.90
5924;DHT22;2987;50.884;14.818;2023-02-02T04:56:06;4.30;99.90
5924;DHT22;2987;50.884;14.818;2023-02-02T04:58:33;4.20;99.90
5924;DHT22;2987;50.884;14.818;2023-02-02T05:00:59;4.20;99.90
5924;DHT22;2987;50.884;14.818;2023-02-02T05:03:25;3.90;99.90
5924;DHT22;2987;50.884;14.818;2023-02-02T05:06:00;4.30;99.90
5924;DHT22;2987;50.884;14.818;2023-02-02T05:08:27;4.30;99.90
5924;DHT22;2987;50.884;14.818;2023-02-02T05:10:54;4.10;99.90
5924;DHT22;2987;50.884;14.818;2023-02-02T05:13:20;4.00;99.90
5924;DHT22;2987;50.884;14.818;2023-02-02T05:15:47;4.00;99.90
5924;DHT22;2987;50.884;14.818;2023-02-02T05:18:13;4.20;99.90
5924;DHT22;2987;50.884;14.818;2023-02-02T05:20:39;4.20;99.90
5924;DHT22;2987;50.884;14.818;2023-02-02T05:23:05;4.20;99.90
5924;DHT22;2987;50.884;14.818;2023-02-02T05:25:32;4.50;99.90
5924;DHT22;2987;50.884;14.818;2023-02-02T05:27:58;4.30;99.90
5924;DHT22;2987;50.884;14.818;2023-02-02T05:30:24;4.30;99.90
5924;DHT22;2987;50.884;14.818;2023-02-02T05:32:50;4.30;99.90
5924;DHT22;2987;50.884;14.818;2023-02-02T05:35:16;4.30;99.90
5924;DHT22;2987;50.884;14.818;2023-02-02T05:37:42;4.30;99.90
5924;DHT22;2987;50.884;14.818;2023-02-02T05:40:09;4.30;99.90
5924;DHT22;2987;50.884;14.818;2023-02-02T05:42:35;4.30;99.90
5924;DHT22;2987;50.884;14.818;2023-02-02T05:45:02;4.00;99.90
5924;DHT22;2987;50.884;14.818;2023-02-02T05:47:28;4.00;99.90
5924;DHT22;2987;50.884;14.818;2023-02-02T05:49:54;4.00;99.90
5924;DHT22;2987;50.884;14.818;2023-02-02T05:52:22;3.90;99.90
5924;DHT22;2987;50.884;14.818;2023-02-02T05:54:49;4.10;99.90
5924;DHT22;2987;50.884;14.818;2023-02-02T05:57:15;3.90;99.90
5924;DHT22;2987;50.884;14.818;2023-02-02T05:59:42;3.90;99.90
5924;DHT22;2987;50.884;14.818;2023-02-02T06:02:08;3.60;99.90
5924;DHT22;2987;50.884;14.818;2023-02-02T06:04:34;3.60;99.90
5924;DHT22;2987;50.884;14.818;2023-02-02T06:07:00;3.70;99.90
5924;DHT22;2987;50.884;14.818;2023-02-02T06:09:26;3.70;99.90
5924;DHT22;2987;50.884;14.818;2023-02-02T06:11:52;3.70;99.90
5924;DHT22;2987;50.884;14.818;2023-02-02T06:14:18;3.60;99.90
5924;DHT22;2987;50.884;14.818;2023-02-02T06:16:44;3.70;99.90
5924;DHT22;2987;50.884;14.818;2023-02-02T06:19:10;3.50;99.90
5924;DHT22;2987;50.884;14.818;2023-02-02T06:21:37;3.50;99.90
5924;DHT22;2987;50.884;14.818;2023-02-02T06:24:03;3.50;99.90
5924;DHT22;2987;50.884;14.818;2023-02-02T06:26:29;3.50;99.90
5924;DHT22;2987;50.884;14.818;2023-02-02T06:28:56;3.40;99.90
5924;DHT22;2987;50.884;14.818;2023-02-02T06:31:22;3.50;99.90
5924;DHT22;2987;50.884;14.818;2023-02-02T06:33:53;3.40;99.90
5924;DHT22;2987;50.884;14.818;2023-02-02T06:36:21;3.50;99.90
5924;DHT22;2987;50.884;14.818;2023-02-02T06:38:49;3.40;99.90
5924;DHT22;2987;50.884;14.818;2023-02-02T06:41:16;3.50;99.90
5924;DHT22;2987;50.884;14.818;2023-02-02T06:43:43;3.50;99.90
5924;DHT22;2987;50.884;14.818;2023-02-02T06:46:09;3.50;99.90
5924;DHT22;2987;50.884;14.818;2023-02-02T06:48:35;3.40;99.90
5924;DHT22;2987;50.884;14.818;2023-02-02T06:51:01;3.50;99.90
5924;DHT22;2987;50.884;14.818;2023-02-02T06:53:28;3.50;99.90
5924;DHT22;2987;50.884;14.818;2023-02-02T06:55:57;3.50;99.90
5924;DHT22;2987;50.884;14.818;2023-02-02T06:58:24;3.40;99.90
5924;DHT22;2987;50.884;14.818;2023-02-02T07:00:50;3.50;99.90
5924;DHT22;2987;50.884;14.818;2023-02-02T07:03:17;3.40;99.90
5924;DHT22;2987;50.884;14.818;2023-02-02T07:05:43;3.50;99.90
5924;DHT22;2987;50.884;14.818;2023-02-02T07:08:09;3.40;99.90
5924;DHT22;2987;50.884;14.818;2023-02-02T07:10:37;3.70;99.90
5924;DHT22;2987;50.884;14.818;2023-02-02T07:13:03;3.60;99.90
5924;DHT22;2987;50.884;14.818;2023-02-02T07:15:32;3.50;99.90
5924;DHT22;2987;50.884;14.818;2023-02-02T07:18:00;3.40;99.90
5924;DHT22;2987;50.884;14.818;2023-02-02T07:20:26;3.50;99.90
5924;DHT22;2987;50.884;14.818;2023-02-02T07:22:53;3.40;99.90
5924;DHT22;2987;50.884;14.818;2023-02-02T07:25:19;3.70;99.90
5924;DHT22;2987;50.884;14.818;2023-02-02T07:27:45;3.70;99.90
5924;DHT22;2987;50.884;14.818;2023-02-02T07:30:14;3.70;99.90
5924;DHT22;2987;50.884;14.818;2023-02-02T07:32:49;3.80;99.90
5924;DHT22;2987;50.884;14.818;2023-02-02T07:35:16;3.80;99.90
5924;DHT22;2987;50.884;14.818;2023-02-02T07:37:42;4.00;99.90
5924;DHT22;2987;50.884;14.818;2023-02-02T07:40:09;4.00;99.90
5924;DHT22;2987;50.884;14.818;2023-02-02T07:42:36;4.00;99.90
5924;DHT22;2987;50.884;14.818;2023-02-02T07:45:02;4.10;99.90
5924;DHT22;2987;50.884;14.818;2023-02-02T07:47:30;4.00;99.90
5924;DHT22;2987;50.884;14.818;2023-02-02T07:49:56;4.00;99.90
5924;DHT22;2987;50.884;14.818;2023-02-02T07:52:22;4.30;99.90
5924;DHT22;2987;50.884;14.818;2023-02-02T07:54:49;4.30;99.90
5924;DHT22;2987;50.884;14.818;2023-02-02T07:57:16;4.30;99.90
5924;DHT22;2987;50.884;14.818;2023-02-02T07:59:42;4.30;99.90
5924;DHT22;2987;50.884;14.818;2023-02-02T08:02:09;4.10;99.90
5924;DHT22;2987;50.884;14.818;2023-02-02T08:04:35;4.30;99.90
5924;DHT22;2987;50.884;14.818;2023-02-02T08:07:02;4.30;99.90
5924;DHT22;2987;50.884;14.818;2023-02-02T08:09:28;4.30;99.90
5924;DHT22;2987;50.884;14.818;2023-02-02T08:11:54;4.30;99.90
5924;DHT22;2987;50.884;14.818;2023-02-02T08:14:22;4.30;99.90
5924;DHT22;2987;50.884;14.818;2023-02-02T08:16:48;4.30;99.90
5924;DHT22;2987;50.884;14.818;2023-02-02T08:19:14;4.30;99.90
5924;DHT22;2987;50.884;14.818;2023-02-02T08:21:40;4.30;99.90
5924;DHT22;2987;50.884;14.818;2023-02-02T08:24:07;4.00;99.90
5924;DHT22;2987;50.884;14.818;2023-02-02T08:26:33;4.00;99.90
5924;DHT22;2987;50.884;14.818;2023-02-02T08:29:05;3.90;99.90
5924;DHT22;2987;50.884;14.818;2023-02-02T08:31:34;4.00;99.90
5924;DHT22;2987;50.884;14.818;2023-02-02T08:34:01;4.00;99.90
5924;DHT22;2987;50.884;14.818;2023-02-02T08:36:29;4.10;99.90
5924;DHT22;2987;50.884;14.818;2023-02-02T08:39:00;4.20;99.90
5924;DHT22;2987;50.884;14.818;2023-02-02T08:41:26;4.40;99.90
5924;DHT22;2987;50.884;14.818;2023-02-02T08:43:53;4.30;99.90
5924;DHT22;2987;50.884;14.818;2023-02-02T08:46:20;4.30;99.90
5924;DHT22;2987;50.884;14.818;2023-02-02T08:48:47;4.30;99.90
5924;DHT22;2987;50.884;14.818;2023-02-02T08:51:16;4.50;99.90
5924;DHT22;2987;50.884;14.818;2023-02-02T08:53:44;4.20;99.90
5924;DHT22;2987;50.884;14.818;2023-02-02T08:56:16;4.60;99.90
5924;DHT22;2987;50.884;14.818;2023-02-02T08:58:49;4.50;99.90
5924;DHT22;2987;50.884;14.818;2023-02-02T09:01:19;4.70;99.90
5924;DHT22;2987;50.884;14.818;2023-02-02T09:03:46;4.60;99.90
5924;DHT22;2987;50.884;14.818;2023-02-02T09:06:14;4.60;99.90
5924;DHT22;2987;50.884;14.818;2023-02-02T09:08:41;4.60;99.90
5924;DHT22;2987;50.884;14.818;2023-02-02T09:11:10;4.60;99.90
5924;DHT22;2987;50.884;14.818;2023-02-02T09:13:39;4.60;99.90
5924;DHT22;2987;50.884;14.818;2023-02-02T09:16:09;4.50;99.90
5924;DHT22;2987;50.884;14.818;2023-02-02T09:18:36;4.30;99.90
5924;DHT22;2987;50.884;14.818;2023-02-02T09:21:05;4.30;99.90
5924;DHT22;2987;50.884;14.818;2023-02-02T09:23:32;4.30;99.90
5924;DHT22;2987;50.884;14.818;2023-02-02T09:26:20;4.30;99.90
5924;DHT22;2987;50.884;14.818;2023-02-02T09:31:13;4.30;99.90
5924;DHT22;2987;50.884;14.818;2023-02-02T09:33:41;4.30;99.90
5924;DHT22;2987;50.884;14.818;2023-02-02T09:36:10;4.30;99.90
5924;DHT22;2987;50.884;14.818;2023-02-02T09:38:38;4.30;99.90
5924;DHT22;2987;50.884;14.818;2023-02-02T09:55:40;4.00;99.90
5924;DHT22;2987;50.884;14.818;2023-02-02T10:03:35;3.70;99.90
5924;DHT22;2987;50.884;14.818;2023-02-02T10:09:26;3.50;99.90
5924;DHT22;2987;50.884;14.818;2023-02-02T10:14:30;3.50;99.90
5924;DHT22;2987;50.884;14.818;2023-02-02T10:17:06;3.40;99.90
5924;DHT22;2987;50.884;14.818;2023-02-02T10:19:38;3.80;99.90
5924;DHT22;2987;50.884;14.818;2023-02-02T10:22:16;3.70;99.90
5924;DHT22;2987;50.884;14.818;2023-02-02T10:24:44;3.80;99.90
5924;DHT22;2987;50.884;14.818;2023-02-02T10:27:14;3.90;99.90
5924;DHT22;2987;50.884;14.818;2023-02-02T10:29:59;4.00;99.90
5924;DHT22;2987;50.884;14.818;2023-02-02T10:32:32;4.00;99.90
5924;DHT22;2987;50.884;14.818;2023-02-02T10:35:09;4.30;99.90
5924;DHT22;2987;50.884;14.818;2023-02-02T10:37:51;4.60;99.90
5924;DHT22;2987;50.884;14.818;2023-02-02T10:46:08;6.10;99.90
5924;DHT22;2987;50.884;14.818;2023-02-02T10:48:45;6.20;99.90
5924;DHT22;2987;50.884;14.818;2023-02-02T10:51:20;6.00;99.90
5924;DHT22;2987;50.884;14.818;2023-02-02T10:53:52;5.80;99.90
5924;DHT22;2987;50.884;14.818;2023-02-02T10:56:39;5.80;99.90
5924;DHT22;2987;50.884;14.818;2023-02-02T10:59:15;5.80;99.90
5924;DHT22;2987;50.884;14.818;2023-02-02T11:01:42;5.20;99.90
5924;DHT22;2987;50.884;14.818;2023-02-02T11:04:10;5.00;99.90
5924;DHT22;2987;50.884;14.818;2023-02-02T11:06:56;4.90;99.90
5924;DHT22;2987;50.884;14.818;2023-02-02T11:09:25;5.30;99.90
5924;DHT22;2987;50.884;14.818;2023-02-02T11:11:58;5.40;99.90
5924;DHT22;2987;50.884;14.818;2023-02-02T11:14:46;4.90;99.90
5924;DHT22;2987;50.884;14.818;2023-02-02T11:17:24;5.00;99.90
5924;DHT22;2987;50.884;14.818;2023-02-02T11:19:51;4.80;99.90
5924;DHT22;2987;50.884;14.818;2023-02-02T11:22:30;4.90;99.90
5924;DHT22;2987;50.884;14.818;2023-02-02T11:25:03;5.40;99.90
5924;DHT22;2987;50.884;14.818;2023-02-02T11:27:39;5.60;99.90
5924;DHT22;2987;50.884;14.818;2023-02-02T11:30:29;5.90;99.90
5924;DHT22;2987;50.884;14.818;2023-02-02T11:32:56;6.70;99.90
5924;DHT22;2987;50.884;14.818;2023-02-02T11:35:24;7.20;99.90
5924;DHT22;2987;50.884;14.818;2023-02-02T11:37:54;7.20;99.90
5924;DHT22;2987;50.884;14.818;2023-02-02T11:40:33;7.30;99.90
5924;DHT22;2987;50.884;14.818;2023-02-02T11:43:03;7.00;99.90
5924;DHT22;2987;50.884;14.818;2023-02-02T11:45:35;7.00;99.90
5924;DHT22;2987;50.884;14.818;2023-02-02T11:48:06;6.80;99.90
5924;DHT22;2987;50.884;14.818;2023-02-02T11:50:37;6.70;99.90
5924;DHT22;2987;50.884;14.818;2023-02-02T11:53:03;6.60;99.90
5924;DHT22;2987;50.884;14.818;2023-02-02T11:55:31;6.80;99.90
5924;DHT22;2987;50.884;14.818;2023-02-02T11:58:18;6.60;99.90
5924;DHT22;2987;50.884;14.818;2023-02-02T12:03:34;6.90;99.90
5924;DHT22;2987;50.884;14.818;2023-02-02T12:06:17;6.70;99.90
5924;DHT22;2987;50.884;14.818;2023-02-02T12:08:45;6.60;99.90
5924;DHT22;2987;50.884;14.818;2023-02-02T12:14:27;6.70;99.90
5924;DHT22;2987;50.884;14.818;2023-02-02T12:19:37;6.10;99.90
5924;DHT22;2987;50.884;14.818;2023-02-02T12:30:16;5.40;99.90
5924;DHT22;2987;50.884;14.818;2023-02-02T12:43:45;5.20;99.90
5924;DHT22;2987;50.884;14.818;2023-02-02T12:49:10;5.00;99.90
5924;DHT22;2987;50.884;14.818;2023-02-02T12:51:55;5.10;99.90
5924;DHT22;2987;50.884;14.818;2023-02-02T13:08:27;4.30;99.90
5924;DHT22;2987;50.884;14.818;2023-02-02T13:14:10;4.30;99.90
5924;DHT22;2987;50.884;14.818;2023-02-02T13:16:38;4.00;99.90
5924;DHT22;2987;50.884;14.818;2023-02-02T13:19:09;3.70;99.90
5924;DHT22;2987;50.884;14.818;2023-02-02T13:21:37;3.30;99.90
5924;DHT22;2987;50.884;14.818;2023-02-02T13:24:06;3.30;99.90
5924;DHT22;2987;50.884;14.818;2023-02-02T13:26:39;3.20;99.90
5924;DHT22;2987;50.884;14.818;2023-02-02T13:35:02;2.90;99.90
5924;DHT22;2987;50.884;14.818;2023-02-02T13:37:38;3.00;99.90
5924;DHT22;2987;50.884;14.818;2023-02-02T13:46:41;2.90;99.90
5924;DHT22;2987;50.884;14.818;2023-02-02T13:49:17;2.90;99.90
5924;DHT22;2987;50.884;14.818;2023-02-02T13:55:02;3.00;99.90
5924;DHT22;2987;50.884;14.818;2023-02-02T14:00:39;3.20;99.90
5924;DHT22;2987;50.884;14.818;2023-02-02T14:06:12;3.40;99.90
5924;DHT22;2987;50.884;14.818;2023-02-02T14:08:48;3.70;99.90
5924;DHT22;2987;50.884;14.818;2023-02-02T14:13:52;3.50;99.90
5924;DHT22;2987;50.884;14.818;2023-02-02T14:16:41;3.40;99.90
5924;DHT22;2987;50.884;14.818;2023-02-02T14:19:15;3.30;99.90
5924;DHT22;2987;50.884;14.818;2023-02-02T14:21:58;3.20;99.90
5924;DHT22;2987;50.884;14.818;2023-02-02T14:24:41;3.20;99.90
5924;DHT22;2987;50.884;14.818;2023-02-02T14:30:19;3.20;99.90
5924;DHT22;2987;50.884;14.818;2023-02-02T14:32:46;3.20;99.90
5924;DHT22;2987;50.884;14.818;2023-02-02T14:38:04;3.00;99.90
5924;DHT22;2987;50.884;14.818;2023-02-02T14:40:46;3.20;99.90
5924;DHT22;2987;50.884;14.818;2023-02-02T14:43:35;3.20;99.90
5924;DHT22;2987;50.884;14.818;2023-02-02T14:46:25;3.30;99.90
5924;DHT22;2987;50.884;14.818;2023-02-02T14:49:09;3.20;99.90
5924;DHT22;2987;50.884;14.818;2023-02-02T14:51:48;3.20;99.90
5924;DHT22;2987;50.884;14.818;2023-02-02T14:54:26;3.30;99.90
5924;DHT22;2987;50.884;14.818;2023-02-02T14:56:58;3.20;99.90
5924;DHT22;2987;50.884;14.818;2023-02-02T14:59:30;3.20;99.90
5924;DHT22;2987;50.884;14.818;2023-02-02T15:02:13;3.10;99.90
5924;DHT22;2987;50.884;14.818;2023-02-02T15:04:41;3.20;99.90
5924;DHT22;2987;50.884;14.818;2023-02-02T15:07:35;3.30;99.90
5924;DHT22;2987;50.884;14.818;2023-02-02T15:10:03;3.20;99.90
5924;DHT22;2987;50.884;14.818;2023-02-02T15:12:46;3.20;99.90
5924;DHT22;2987;50.884;14.818;2023-02-02T15:15:20;3.20;99.90
5924;DHT22;2987;50.884;14.818;2023-02-02T15:23:26;2.80;99.90
5924;DHT22;2987;50.884;14.818;2023-02-02T15:26:17;2.90;99.90
5924;DHT22;2987;50.884;14.818;2023-02-02T15:34:03;2.80;99.90
5924;DHT22;2987;50.884;14.818;2023-02-02T15:36:38;2.90;99.90
5924;DHT22;2987;50.884;14.818;2023-02-02T15:39:26;2.80;99.90
5924;DHT22;2987;50.884;14.818;2023-02-02T15:41:54;2.80;99.90
5924;DHT22;2987;50.884;14.818;2023-02-02T15:44:41;2.70;99.90
5924;DHT22;2987;50.884;14.818;2023-02-02T15:47:15;3.00;99.90
5924;DHT22;2987;50.884;14.818;2023-02-02T15:49:42;3.10;99.90
5924;DHT22;2987;50.884;14.818;2023-02-02T15:52:16;3.00;99.90
5924;DHT22;2987;50.884;14.818;2023-02-02T15:55:00;3.00;99.90
5924;DHT22;2987;50.884;14.818;2023-02-02T15:57:34;3.00;99.90
5924;DHT22;2987;50.884;14.818;2023-02-02T16:00:27;3.20;99.90
5924;DHT22;2987;50.884;14.818;2023-02-02T16:05:46;3.30;99.90
5924;DHT22;2987;50.884;14.818;2023-02-02T16:08:17;3.30;99.90
5924;DHT22;2987;50.884;14.818;2023-02-02T16:10:45;3.20;99.90
5924;DHT22;2987;50.884;14.818;2023-02-02T16:13:26;3.60;99.90
5924;DHT22;2987;50.884;14.818;2023-02-02T16:15:56;3.30;99.90
5924;DHT22;2987;50.884;14.818;2023-02-02T16:18:23;3.30;99.90
5924;DHT22;2987;50.884;14.818;2023-02-02T16:20:50;3.50;99.90
5924;DHT22;2987;50.884;14.818;2023-02-02T16:23:30;3.40;99.90
5924;DHT22;2987;50.884;14.818;2023-02-02T16:25:58;3.30;99.90
5924;DHT22;2987;50.884;14.818;2023-02-02T16:28:26;3.50;99.90
5924;DHT22;2987;50.884;14.818;2023-02-02T16:30:52;3.40;99.90
5924;DHT22;2987;50.884;14.818;2023-02-02T16:33:28;3.50;99.90
5924;DHT22;2987;50.884;14.818;2023-02-02T16:35:55;3.40;99.90
5924;DHT22;2987;50.884;14.818;2023-02-02T16:38:29;3.30;99.90
5924;DHT22;2987;50.884;14.818;2023-02-02T16:41:29;3.20;99.90
5924;DHT22;2987;50.884;14.818;2023-02-02T16:47:29;3.20;99.90
5924;DHT22;2987;50.884;14.818;2023-02-02T16:50:18;3.00;99.90
5924;DHT22;2987;50.884;14.818;2023-02-02T16:55:25;3.00;99.90
5924;DHT22;2987;50.884;14.818;2023-02-02T17:00:18;2.70;99.90
5924;DHT22;2987;50.884;14.818;2023-02-02T17:02:47;2.70;99.90
5924;DHT22;2987;50.884;14.818;2023-02-02T17:05:23;2.70;99.90
5924;DHT22;2987;50.884;14.818;2023-02-02T17:07:55;2.70;99.90
5924;DHT22;2987;50.884;14.818;2023-02-02T17:10:27;2.70;99.90
5924;DHT22;2987;50.884;14.818;2023-02-02T17:12:57;2.70;99.90
5924;DHT22;2987;50.884;14.818;2023-02-02T17:15:31;3.00;99.90
5924;DHT22;2987;50.884;14.818;2023-02-02T17:17:58;2.50;99.90
5924;DHT22;2987;50.884;14.818;2023-02-02T17:20:24;2.50;99.90
5924;DHT22;2987;50.884;14.818;2023-02-02T17:23:00;2.50;99.90
5924;DHT22;2987;50.884;14.818;2023-02-02T17:25:35;2.80;99.90
5924;DHT22;2987;50.884;14.818;2023-02-02T17:28:03;2.50;99.90
5924;DHT22;2987;50.884;14.818;2023-02-02T17:30:31;2.90;99.90
5924;DHT22;2987;50.884;14.818;2023-02-02T17:32:58;2.80;99.90
5924;DHT22;2987;50.884;14.818;2023-02-02T17:35:26;2.50;99.90
5924;DHT22;2987;50.884;14.818;2023-02-02T17:37:52;2.70;99.90
5924;DHT22;2987;50.884;14.818;2023-02-02T17:40:20;2.70;99.90
5924;DHT22;2987;50.884;14.818;2023-02-02T17:42:50;2.60;99.90
5924;DHT22;2987;50.884;14.818;2023-02-02T17:45:22;2.60;99.90
5924;DHT22;2987;50.884;14.818;2023-02-02T17:47:50;2.70;99.90
5924;DHT22;2987;50.884;14.818;2023-02-02T17:50:16;2.70;99.90
5924;DHT22;2987;50.884;14.818;2023-02-02T17:52:42;2.60;99.90
5924;DHT22;2987;50.884;14.818;2023-02-02T17:55:17;2.80;99.90
5924;DHT22;2987;50.884;14.818;2023-02-02T17:57:44;2.70;99.90
5924;DHT22;2987;50.884;14.818;2023-02-02T18:00:10;2.70;99.90
5924;DHT22;2987;50.884;14.818;2023-02-02T18:02:38;2.50;99.90
5924;DHT22;2987;50.884;14.818;2023-02-02T18:05:05;2.30;99.90
5924;DHT22;2987;50.884;14.818;2023-02-02T18:07:31;2.50;99.90
5924;DHT22;2987;50.884;14.818;2023-02-02T18:09:58;2.40;99.90
5924;DHT22;2987;50.884;14.818;2023-02-02T18:12:24;2.30;99.90
5924;DHT22;2987;50.884;14.818;2023-02-02T18:14:50;2.20;99.90
5924;DHT22;2987;50.884;14.818;2023-02-02T18:17:16;2.20;99.90
5924;DHT22;2987;50.884;14.818;2023-02-02T18:19:42;2.20;99.90
5924;DHT22;2987;50.884;14.818;2023-02-02T18:22:11;2.20;99.90
5924;DHT22;2987;50.884;14.818;2023-02-02T18:24:39;2.10;99.90
5924;DHT22;2987;50.884;14.818;2023-02-02T18:27:06;1.90;99.90
5924;DHT22;2987;50.884;14.818;2023-02-02T18:29:33;1.90;99.90
5924;DHT22;2987;50.884;14.818;2023-02-02T18:31:59;1.90;99.90
5924;DHT22;2987;50.884;14.818;2023-02-02T18:34:30;1.90;99.90
5924;DHT22;2987;50.884;14.818;2023-02-02T18:36:56;1.80;99.90
5924;DHT22;2987;50.884;14.818;2023-02-02T18:39:23;1.40;99.90
5924;DHT22;2987;50.884;14.818;2023-02-02T18:41:49;1.40;99.90
5924;DHT22;2987;50.884;14.818;2023-02-02T18:44:15;1.60;99.90
5924;DHT22;2987;50.884;14.818;2023-02-02T18:46:42;1.40;99.90
5924;DHT22;2987;50.884;14.818;2023-02-02T18:49:09;1.60;99.90
5924;DHT22;2987;50.884;14.818;2023-02-02T18:51:36;1.40;99.90
5924;DHT22;2987;50.884;14.818;2023-02-02T18:54:02;1.40;99.90